sensor_id;sensor_type;location;lat;lon;timestamp;temperature;humidity
14359;DHT22;7263;49.418;11.064;2023-06-24T00:04:51;16.50;99.90
14359;DHT22;7263;49.418;11.064;2023-06-24T00:17:13;16.20;99.90
14359;DHT22;7263;49.418;11.064;2023-06-24T00:19:51;16.20;99.90
14359;DHT22;7263;49.418;11.064;2023-06-24T00:24:59;16.10;99.90
14359;DHT22;7263;49.418;11.064;2023-06-24T00:30:05;16.00;99.90
14359;DHT22;7263;49.418;11.064;2023-06-24T00:32:36;15.90;99.90
14359;DHT22;7263;49.418;11.064;2023-06-24T00:35:09;15.90;99.90
14359;DHT22;7263;49.418;11.064;2023-06-24T00:37:40;15.80;99.90
14359;DHT22;7263;49.418;11.064;2023-06-24T00:42:47;15.70;99.90
14359;DHT22;7263;49.418;11.064;2023-06-24T00:45:14;15.60;99.90
14359;DHT22;7263;49.418;11.064;2023-06-24T00:47:43;15.50;99.90
14359;DHT22;7263;49.418;11.064;2023-06-24T00:50:17;15.40;99.90
14359;DHT22;7263;49.418;11.064;2023-06-24T00:52:49;15.30;99.90
14359;DHT22;7263;49.418;11.064;2023-06-24T00:55:16;15.20;99.90
14359;DHT22;7263;49.418;11.064;2023-06-24T00:57:47;15.00;99.90
14359;DHT22;7263;49.418;11.064;2023-06-24T01:00:17;15.10;99.90
14359;DHT22;7263;49.418;11.064;2023-06-24T01:05:19;14.80;99.90
14359;DHT22;7263;49.418;11.064;2023-06-24T01:07:52;14.80;99.90
14359;DHT22;7263;49.418;11.064;2023-06-24T01:12:49;14.70;99.90
14359;DHT22;7263;49.418;11.064;2023-06-24T01:15:20;14.60;99.90
14359;DHT22;7263;49.418;11.064;2023-06-24T01:17:56;14.60;99.90
14359;DHT22;7263;49.418;11.064;2023-06-24T01:20:29;14.50;99.90
14359;DHT22;7263;49.418;11.064;2023-06-24T01:23:19;14.50;99.90
14359;DHT22;7263;49.418;11.064;2023-06-24T01:26:03;14.40;99.90
14359;DHT22;7263;49.418;11.064;2023-06-24T01:29:07;14.30;99.90
14359;DHT22;7263;49.418;11.064;2023-06-24T01:31:42;14.20;99.90
14359;DHT22;7263;49.418;11.064;2023-06-24T01:34:24;14.20;99.90
14359;DHT22;7263;49.418;11.064;2023-06-24T01:37:00;14.10;99.90
14359;DHT22;7263;49.418;11.064;2023-06-24T01:39:31;14.00;99.90
14359;DHT22;7263;49.418;11.064;2023-06-24T01:42:06;14.00;99.90
14359;DHT22;7263;49.418;11.064;2023-06-24T01:44:43;13.90;99.90
14359;DHT22;7263;49.418;11.064;2023-06-24T01:47:19;13.80;99.90
14359;DHT22;7263;49.418;11.064;2023-06-24T01:49:51;13.80;99.90
14359;DHT22;7263;49.418;11.064;2023-06-24T01:52:23;13.80;99.90
14359;DHT22;7263;49.418;11.064;2023-06-24T01:54:50;13.70;99.90
14359;DHT22;7263;49.418;11.064;2023-06-24T01:57:20;13.70;99.90
14359;DHT22;7263;49.418;11.064;2023-06-24T01:59:52;13.70;99.90
14359;DHT22;7263;49.418;11.064;2023-06-24T02:02:24;13.70;99.90
14359;DHT22;7263;49.418;11.064;2023-06-24T02:04:53;13.50;99.90
14359;DHT22;7263;49.418;11.064;2023-06-24T02:07:21;13.50;99.90
14359;DHT22;7263;49.418;11.064;2023-06-24T02:09:49;13.50;99.90
14359;DHT22;7263;49.418;11.064;2023-06-24T02:12:20;13.40;99.90
14359;DHT22;7263;49.418;11.064;2023-06-24T02:14:48;13.50;99.90
14359;DHT22;7263;49.418;11.064;2023-06-24T02:17:24;13.50;99.90
14359;DHT22;7263;49.418;11.064;2023-06-24T02:19:54;13.40;99.90
14359;DHT22;7263;49.418;11.064;2023-06-24T02:22:24;13.40;99.90
14359;DHT22;7263;49.418;11.064;2023-06-24T02:24:51;13.40;99.90
14359;DHT22;7263;49.418;11.064;2023-06-24T02:27:21;13.30;99.90
14359;DHT22;7263;49.418;11.064;2023-06-24T02:29:52;13.40;99.90
14359;DHT22;7263;49.418;11.064;2023-06-24T02:32:19;13.30;99.90
14359;DHT22;7263;49.418;11.064;2023-06-24T02:34:51;13.30;99.90
14359;DHT22;7263;49.418;11.064;2023-06-24T02:37:17;13.30;99.90
14359;DHT22;7263;49.418;11.064;2023-06-24T02:39:44;13.20;99.90
14359;DHT22;7263;49.418;11.064;2023-06-24T02:42:11;13.20;99.90
14359;DHT22;7263;49.418;11.064;2023-06-24T02:44:45;13.10;99.90
14359;DHT22;7263;49.418;11.064;2023-06-24T02:47:15;13.10;99.90
14359;DHT22;7263;49.418;11.064;2023-06-24T02:49:44;13.20;99.90
14359;DHT22;7263;49.418;11.064;2023-06-24T02:52:20;13.10;99.90
14359;DHT22;7263;49.418;11.064;2023-06-24T02:54:48;13.10;99.90
14359;DHT22;7263;49.418;11.064;2023-06-24T02:57:18;13.10;99.90
14359;DHT22;7263;49.418;11.064;2023-06-24T02:59:45;13.10;99.90
14359;DHT22;7263;49.418;11.064;2023-06-24T03:02:13;13.20;99.90
14359;DHT22;7263;49.418;11.064;2023-06-24T03:04:47;13.20;99.90
14359;DHT22;7263;49.418;11.064;2023-06-24T03:07:20;13.20;99.90
14359;DHT22;7263;49.418;11.064;2023-06-24T03:09:50;13.20;99.90
14359;DHT22;7263;49.418;11.064;2023-06-24T03:12:20;13.10;99.90
14359;DHT22;7263;49.418;11.064;2023-06-24T03:17:19;13.10;99.90
14359;DHT22;7263;49.418;11.064;2023-06-24T03:19:47;13.10;99.90
14359;DHT22;7263;49.418;11.064;2023-06-24T03:22:14;13.10;99.90
14359;DHT22;7263;49.418;11.064;2023-06-24T03:24:46;13.00;99.90
14359;DHT22;7263;49.418;11.064;2023-06-24T03:27:13;13.00;99.90
14359;DHT22;7263;49.418;11.064;2023-06-24T03:29:42;13.00;99.90
14359;DHT22;7263;49.418;11.064;2023-06-24T03:32:11;13.00;99.90
14359;DHT22;7263;49.418;11.064;2023-06-24T03:34:38;13.00;99.90
14359;DHT22;7263;49.418;11.064;2023-06-24T03:37:05;13.00;99.90
14359;DHT22;7263;49.418;11.064;2023-06-24T03:39:32;13.00;99.90
14359;DHT22;7263;49.418;11.064;2023-06-24T03:42:01;12.90;99.90
14359;DHT22;7263;49.418;11.064;2023-06-24T03:44:27;12.90;99.90
14359;DHT22;7263;49.418;11.064;2023-06-24T03:46:56;12.90;99.90
14359;DHT22;7263;49.418;11.064;2023-06-24T03:49:23;12.90;99.90
14359;DHT22;7263;49.418;11.064;2023-06-24T03:51:53;13.00;99.90
14359;DHT22;7263;49.418;11.064;2023-06-24T03:54:19;12.90;99.90
14359;DHT22;7263;49.418;11.064;2023-06-24T03:56:46;13.00;99.90
14359;DHT22;7263;49.418;11.064;2023-06-24T03:59:16;12.90;99.90
14359;DHT22;7263;49.418;11.064;2023-06-24T04:01:43;13.00;99.90
14359;DHT22;7263;49.418;11.064;2023-06-24T04:04:10;13.20;99.90
14359;DHT22;7263;49.418;11.064;2023-06-24T04:06:40;13.20;99.90
14359;DHT22;7263;49.418;11.064;2023-06-24T04:09:07;13.30;99.90
14359;DHT22;7263;49.418;11.064;2023-06-24T04:11:42;13.50;99.90
14359;DHT22;7263;49.418;11.064;2023-06-24T04:14:09;13.90;99.90
14359;DHT22;7263;49.418;11.064;2023-06-24T04:16:38;14.10;99.90
14359;DHT22;7263;49.418;11.064;2023-06-24T04:19:07;14.10;99.90
14359;DHT22;7263;49.418;11.064;2023-06-24T04:21:34;14.40;99.90
14359;DHT22;7263;49.418;11.064;2023-06-24T04:24:01;14.60;99.90
14359;DHT22;7263;49.418;11.064;2023-06-24T04:26:30;14.70;99.90
14359;DHT22;7263;49.418;11.064;2023-06-24T04:29:02;15.00;99.90
14359;DHT22;7263;49.418;11.064;2023-06-24T04:31:29;15.20;99.90
14359;DHT22;7263;49.418;11.064;2023-06-24T04:34:00;15.50;99.90
14359;DHT22;7263;49.418;11.064;2023-06-24T04:36:29;15.70;99.90
14359;DHT22;7263;49.418;11.064;2023-06-24T04:38:56;15.90;99.90
14359;DHT22;7263;49.418;11.064;2023-06-24T04:41:26;16.10;99.90
14359;DHT22;7263;49.418;11.064;2023-06-24T04:43:53;16.40;99.90
14359;DHT22;7263;49.418;11.064;2023-06-24T04:46:20;16.70;99.90
14359;DHT22;7263;49.418;11.064;2023-06-24T04:48:47;17.00;99.90
14359;DHT22;7263;49.418;11.064;2023-06-24T04:51:17;17.30;99.90
14359;DHT22;7263;49.418;11.064;2023-06-24T04:53:44;17.40;99.90
14359;DHT22;7263;49.418;11.064;2023-06-24T04:56:14;17.40;99.90
14359;DHT22;7263;49.418;11.064;2023-06-24T04:58:47;17.50;99.90
14359;DHT22;7263;49.418;11.064;2023-06-24T05:01:14;17.60;99.90
14359;DHT22;7263;49.418;11.064;2023-06-24T05:03:44;17.70;99.90
14359;DHT22;7263;49.418;11.064;2023-06-24T05:06:10;17.70;99.90
14359;DHT22;7263;49.418;11.064;2023-06-24T05:08:44;18.00;99.90
14359;DHT22;7263;49.418;11.064;2023-06-24T05:11:13;18.30;99.90
14359;DHT22;7263;49.418;11.064;2023-06-24T05:13:43;18.70;99.90
14359;DHT22;7263;49.418;11.064;2023-06-24T05:16:13;19.00;99.90
14359;DHT22;7263;49.418;11.064;2023-06-24T05:18:45;19.70;99.90
14359;DHT22;7263;49.418;11.064;2023-06-24T05:21:11;19.30;99.90
14359;DHT22;7263;49.418;11.064;2023-06-24T05:23:43;19.40;99.90
14359;DHT22;7263;49.418;11.064;2023-06-24T05:26:09;19.60;99.90
14359;DHT22;7263;49.418;11.064;2023-06-24T05:28:36;19.80;99.90
14359;DHT22;7263;49.418;11.064;2023-06-24T05:31:06;20.10;99.90
14359;DHT22;7263;49.418;11.064;2023-06-24T05:33:32;20.20;99.90
14359;DHT22;7263;49.418;11.064;2023-06-24T05:36:01;20.30;99.90
14359;DHT22;7263;49.418;11.064;2023-06-24T05:38:28;20.50;99.90
14359;DHT22;7263;49.418;11.064;2023-06-24T05:40:56;20.70;99.90
14359;DHT22;7263;49.418;11.064;2023-06-24T05:43:22;20.70;99.90
14359;DHT22;7263;49.418;11.064;2023-06-24T05:45:49;20.70;99.90
14359;DHT22;7263;49.418;11.064;2023-06-24T05:48:16;20.70;99.90
14359;DHT22;7263;49.418;11.064;2023-06-24T05:50:46;20.90;99.90
14359;DHT22;7263;49.418;11.064;2023-06-24T05:53:15;21.10;99.90
14359;DHT22;7263;49.418;11.064;2023-06-24T05:55:42;21.30;99.90
14359;DHT22;7263;49.418;11.064;2023-06-24T05:58:15;21.50;99.90
14359;DHT22;7263;49.418;11.064;2023-06-24T06:00:42;21.70;99.90
14359;DHT22;7263;49.418;11.064;2023-06-24T06:03:09;22.10;99.90
14359;DHT22;7263;49.418;11.064;2023-06-24T06:05:36;22.40;99.90
14359;DHT22;7263;49.418;11.064;2023-06-24T06:08:03;22.50;99.90
14359;DHT22;7263;49.418;11.064;2023-06-24T06:10:30;22.80;99.90
14359;DHT22;7263;49.418;11.064;2023-06-24T06:12:57;23.00;99.90
14359;DHT22;7263;49.418;11.064;2023-06-24T06:15:25;23.20;99.90
14359;DHT22;7263;49.418;11.064;2023-06-24T06:17:52;23.60;99.90
14359;DHT22;7263;49.418;11.064;2023-06-24T06:20:18;23.60;99.90
14359;DHT22;7263;49.418;11.064;2023-06-24T06:22:45;23.70;99.90
14359;DHT22;7263;49.418;11.064;2023-06-24T06:25:12;23.80;99.90
14359;DHT22;7263;49.418;11.064;2023-06-24T06:27:39;23.80;99.90
14359;DHT22;7263;49.418;11.064;2023-06-24T06:30:10;24.00;99.90
14359;DHT22;7263;49.418;11.064;2023-06-24T06:32:41;24.10;99.90
14359;DHT22;7263;49.418;11.064;2023-06-24T06:35:11;24.10;99.90
14359;DHT22;7263;49.418;11.064;2023-06-24T06:37:38;24.10;99.90
14359;DHT22;7263;49.418;11.064;2023-06-24T06:40:08;24.40;99.90
14359;DHT22;7263;49.418;11.064;2023-06-24T06:42:37;24.50;99.90
14359;DHT22;7263;49.418;11.064;2023-06-24T06:45:05;24.90;99.90
14359;DHT22;7263;49.418;11.064;2023-06-24T06:47:35;24.90;99.90
14359;DHT22;7263;49.418;11.064;2023-06-24T06:50:07;24.90;99.90
14359;DHT22;7263;49.418;11.064;2023-06-24T06:52:34;25.30;99.90
14359;DHT22;7263;49.418;11.064;2023-06-24T06:55:04;25.70;99.90
14359;DHT22;7263;49.418;11.064;2023-06-24T06:57:34;25.80;99.90
14359;DHT22;7263;49.418;11.064;2023-06-24T07:00:05;26.00;99.90
14359;DHT22;7263;49.418;11.064;2023-06-24T07:02:34;26.20;99.90
14359;DHT22;7263;49.418;11.064;2023-06-24T07:05:06;26.30;99.90
14359;DHT22;7263;49.418;11.064;2023-06-24T07:07:36;26.30;99.90
14359;DHT22;7263;49.418;11.064;2023-06-24T07:10:03;26.50;99.90
14359;DHT22;7263;49.418;11.064;2023-06-24T07:12:36;26.40;99.90
14359;DHT22;7263;49.418;11.064;2023-06-24T07:15:04;26.70;99.90
14359;DHT22;7263;49.418;11.064;2023-06-24T07:17:40;26.70;99.90
14359;DHT22;7263;49.418;11.064;2023-06-24T07:20:11;27.00;99.90
14359;DHT22;7263;49.418;11.064;2023-06-24T07:22:41;27.40;99.90
14359;DHT22;7263;49.418;11.064;2023-06-24T07:25:09;27.60;99.90
14359;DHT22;7263;49.418;11.064;2023-06-24T07:27:36;27.60;99.90
14359;DHT22;7263;49.418;11.064;2023-06-24T07:30:13;27.90;99.90
14359;DHT22;7263;49.418;11.064;2023-06-24T07:32:42;27.90;99.90
14359;DHT22;7263;49.418;11.064;2023-06-24T07:35:13;30.80;99.90
14359;DHT22;7263;49.418;11.064;2023-06-24T07:37:44;27.90;99.90
14359;DHT22;7263;49.418;11.064;2023-06-24T07:40:11;27.80;99.90
14359;DHT22;7263;49.418;11.064;2023-06-24T07:42:41;28.00;99.90
14359;DHT22;7263;49.418;11.064;2023-06-24T07:45:09;28.10;99.90
14359;DHT22;7263;49.418;11.064;2023-06-24T07:47:35;28.30;99.90
14359;DHT22;7263;49.418;11.064;2023-06-24T07:50:03;28.40;99.90
14359;DHT22;7263;49.418;11.064;2023-06-24T07:52:36;28.20;99.90
14359;DHT22;7263;49.418;11.064;2023-06-24T07:55:03;28.20;99.90
14359;DHT22;7263;49.418;11.064;2023-06-24T08:00:00;28.30;99.90
14359;DHT22;7263;49.418;11.064;2023-06-24T08:02:26;28.30;99.90
14359;DHT22;7263;49.418;11.064;2023-06-24T08:09:54;28.80;99.90
14359;DHT22;7263;49.418;11.064;2023-06-24T08:12:23;28.90;99.90
14359;DHT22;7263;49.418;11.064;2023-06-24T08:14:56;29.10;99.90
14359;DHT22;7263;49.418;11.064;2023-06-24T08:17:26;29.00;99.90
14359;DHT22;7263;49.418;11.064;2023-06-24T08:19:53;29.30;99.10
14359;DHT22;7263;49.418;11.064;2023-06-24T08:22:22;29.20;99.60
14359;DHT22;7263;49.418;11.064;2023-06-24T08:24:58;29.20;99.00
14359;DHT22;7263;49.418;11.064;2023-06-24T08:27:25;29.30;98.80
14359;DHT22;7263;49.418;11.064;2023-06-24T08:32:22;29.60;98.70
14359;DHT22;7263;49.418;11.064;2023-06-24T08:37:16;29.50;97.90
14359;DHT22;7263;49.418;11.064;2023-06-24T08:42:12;29.30;98.20
14359;DHT22;7263;49.418;11.064;2023-06-24T08:44:39;29.40;98.50
14359;DHT22;7263;49.418;11.064;2023-06-24T08:47:06;29.50;98.00
14359;DHT22;7263;49.418;11.064;2023-06-24T08:49:40;30.10;97.60
14359;DHT22;7263;49.418;11.064;2023-06-24T08:52:12;30.40;97.30
14359;DHT22;7263;49.418;11.064;2023-06-24T08:54:41;30.10;95.60
14359;DHT22;7263;49.418;11.064;2023-06-24T08:57:18;29.90;95.90
14359;DHT22;7263;49.418;11.064;2023-06-24T08:59:46;29.80;95.60
14359;DHT22;7263;49.418;11.064;2023-06-24T09:02:21;29.80;95.70
14359;DHT22;7263;49.418;11.064;2023-06-24T09:04:51;29.60;93.90
14359;DHT22;7263;49.418;11.064;2023-06-24T09:07:25;29.60;94.20
14359;DHT22;7263;49.418;11.064;2023-06-24T09:09:53;29.60;94.40
14359;DHT22;7263;49.418;11.064;2023-06-24T09:12:24;29.80;92.40
14359;DHT22;7263;49.418;11.064;2023-06-24T09:14:53;30.00;92.30
14359;DHT22;7263;49.418;11.064;2023-06-24T09:17:20;29.50;91.90
14359;DHT22;7263;49.418;11.064;2023-06-24T09:19:49;29.20;92.60
14359;DHT22;7263;49.418;11.064;2023-06-24T09:22:16;28.90;93.00
14359;DHT22;7263;49.418;11.064;2023-06-24T09:24:47;29.20;94.50
14359;DHT22;7263;49.418;11.064;2023-06-24T09:27:14;29.60;92.90
14359;DHT22;7263;49.418;11.064;2023-06-24T09:29:46;30.00;92.00
14359;DHT22;7263;49.418;11.064;2023-06-24T09:32:15;29.90;92.00
14359;DHT22;7263;49.418;11.064;2023-06-24T09:34:43;29.70;91.40
14359;DHT22;7263;49.418;11.064;2023-06-24T09:37:12;29.70;91.90
14359;DHT22;7263;49.418;11.064;2023-06-24T09:39:50;30.30;91.70
14359;DHT22;7263;49.418;11.064;2023-06-24T09:42:23;30.60;91.80
14359;DHT22;7263;49.418;11.064;2023-06-24T09:44:54;30.70;91.00
14359;DHT22;7263;49.418;11.064;2023-06-24T09:47:24;30.80;91.90
14359;DHT22;7263;49.418;11.064;2023-06-24T09:49:53;31.10;91.50
14359;DHT22;7263;49.418;11.064;2023-06-24T09:52:22;31.20;90.60
14359;DHT22;7263;49.418;11.064;2023-06-24T09:54:51;30.70;89.20
14359;DHT22;7263;49.418;11.064;2023-06-24T09:57:28;30.10;90.60
14359;DHT22;7263;49.418;11.064;2023-06-24T09:59:57;29.70;90.70
14359;DHT22;7263;49.418;11.064;2023-06-24T10:02:25;29.20;90.20
14359;DHT22;7263;49.418;11.064;2023-06-24T10:04:52;29.20;89.40
14359;DHT22;7263;49.418;11.064;2023-06-24T10:07:20;29.20;90.70
14359;DHT22;7263;49.418;11.064;2023-06-24T10:09:48;29.50;91.10
14359;DHT22;7263;49.418;11.064;2023-06-24T10:12:15;29.80;90.20
14359;DHT22;7263;49.418;11.064;2023-06-24T10:17:11;30.50;88.90
14359;DHT22;7263;49.418;11.064;2023-06-24T10:19:39;30.10;90.30
14359;DHT22;7263;49.418;11.064;2023-06-24T10:22:08;30.10;90.20
14359;DHT22;7263;49.418;11.064;2023-06-24T10:24:37;29.60;87.30
14359;DHT22;7263;49.418;11.064;2023-06-24T10:27:08;29.20;86.30
14359;DHT22;7263;49.418;11.064;2023-06-24T10:29:36;28.90;85.60
14359;DHT22;7263;49.418;11.064;2023-06-24T10:32:04;28.90;88.80
14359;DHT22;7263;49.418;11.064;2023-06-24T10:34:40;29.00;88.50
14359;DHT22;7263;49.418;11.064;2023-06-24T10:37:12;28.50;89.90
14359;DHT22;7263;49.418;11.064;2023-06-24T10:39:48;28.60;90.20
14359;DHT22;7263;49.418;11.064;2023-06-24T10:42:37;28.70;90.30
14359;DHT22;7263;49.418;11.064;2023-06-24T10:45:20;29.20;90.00
14359;DHT22;7263;49.418;11.064;2023-06-24T10:47:48;29.70;89.00
14359;DHT22;7263;49.418;11.064;2023-06-24T10:50:20;29.50;87.10
14359;DHT22;7263;49.418;11.064;2023-06-24T10:52:50;29.20;85.90
14359;DHT22;7263;49.418;11.064;2023-06-24T10:55:22;28.70;85.90
14359;DHT22;7263;49.418;11.064;2023-06-24T11:00:21;27.80;89.20
14359;DHT22;7263;49.418;11.064;2023-06-24T11:05:15;27.20;90.00
14359;DHT22;7263;49.418;11.064;2023-06-24T11:07:46;27.50;90.30
14359;DHT22;7263;49.418;11.064;2023-06-24T11:10:16;27.90;90.00
14359;DHT22;7263;49.418;11.064;2023-06-24T11:15:12;28.70;89.20
14359;DHT22;7263;49.418;11.064;2023-06-24T11:17:42;29.00;87.70
14359;DHT22;7263;49.418;11.064;2023-06-24T11:20:13;29.00;87.70
14359;DHT22;7263;49.418;11.064;2023-06-24T11:22:41;28.80;88.30
14359;DHT22;7263;49.418;11.064;2023-06-24T11:25:16;28.60;90.20
14359;DHT22;7263;49.418;11.064;2023-06-24T11:27:45;28.10;88.70
14359;DHT22;7263;49.418;11.064;2023-06-24T11:30:12;27.70;88.30
14359;DHT22;7263;49.418;11.064;2023-06-24T11:32:40;27.80;89.90
14359;DHT22;7263;49.418;11.064;2023-06-24T11:35:11;28.10;90.30
14359;DHT22;7263;49.418;11.064;2023-06-24T11:37:41;28.40;90.10
14359;DHT22;7263;49.418;11.064;2023-06-24T11:40:09;28.70;90.40
14359;DHT22;7263;49.418;11.064;2023-06-24T11:42:41;29.10;91.20
14359;DHT22;7263;49.418;11.064;2023-06-24T11:45:13;29.50;89.70
14359;DHT22;7263;49.418;11.064;2023-06-24T11:47:44;30.00;88.10
14359;DHT22;7263;49.418;11.064;2023-06-24T11:50:10;30.00;88.00
14359;DHT22;7263;49.418;11.064;2023-06-24T11:52:44;29.80;88.60
14359;DHT22;7263;49.418;11.064;2023-06-24T11:55:18;29.80;89.00
14359;DHT22;7263;49.418;11.064;2023-06-24T11:57:54;29.50;87.20
14359;DHT22;7263;49.418;11.064;2023-06-24T12:00:32;29.30;88.70
14359;DHT22;7263;49.418;11.064;2023-06-24T12:03:04;29.30;87.70
14359;DHT22;7263;49.418;11.064;2023-06-24T12:05:32;29.10;86.60
14359;DHT22;7263;49.418;11.064;2023-06-24T12:08:02;28.50;85.60
14359;DHT22;7263;49.418;11.064;2023-06-24T12:10:36;28.30;87.90
14359;DHT22;7263;49.418;11.064;2023-06-24T12:13:05;28.20;86.50
14359;DHT22;7263;49.418;11.064;2023-06-24T12:15:34;28.20;87.50
14359;DHT22;7263;49.418;11.064;2023-06-24T12:18:03;28.30;87.90
14359;DHT22;7263;49.418;11.064;2023-06-24T12:20:31;28.30;87.40
14359;DHT22;7263;49.418;11.064;2023-06-24T12:22:58;28.20;85.70
14359;DHT22;7263;49.418;11.064;2023-06-24T12:27:55;28.10;86.40
14359;DHT22;7263;49.418;11.064;2023-06-24T12:30:23;28.20;85.10
14359;DHT22;7263;49.418;11.064;2023-06-24T12:32:50;28.30;86.40
14359;DHT22;7263;49.418;11.064;2023-06-24T12:35:17;28.40;85.40
14359;DHT22;7263;49.418;11.064;2023-06-24T12:37:44;28.40;85.50
14359;DHT22;7263;49.418;11.064;2023-06-24T12:40:11;28.70;85.60
14359;DHT22;7263;49.418;11.064;2023-06-24T12:42:41;28.70;84.10
14359;DHT22;7263;49.418;11.064;2023-06-24T12:45:08;28.40;83.20
14359;DHT22;7263;49.418;11.064;2023-06-24T12:47:36;28.30;85.90
14359;DHT22;7263;49.418;11.064;2023-06-24T12:50:04;28.20;85.50
14359;DHT22;7263;49.418;11.064;2023-06-24T12:52:32;27.80;85.60
14359;DHT22;7263;49.418;11.064;2023-06-24T12:54:58;27.50;86.50
14359;DHT22;7263;49.418;11.064;2023-06-24T12:57:28;27.30;86.70
14359;DHT22;7263;49.418;11.064;2023-06-24T13:02:22;26.50;87.80
14359;DHT22;7263;49.418;11.064;2023-06-24T13:04:53;26.30;89.70
14359;DHT22;7263;49.418;11.064;2023-06-24T13:07:20;26.10;89.80
14359;DHT22;7263;49.418;11.064;2023-06-24T13:09:49;26.10;89.90
14359;DHT22;7263;49.418;11.064;2023-06-24T13:12:16;26.10;88.00
14359;DHT22;7263;49.418;11.064;2023-06-24T13:14:43;26.20;89.80
14359;DHT22;7263;49.418;11.064;2023-06-24T13:17:09;26.40;90.50
14359;DHT22;7263;49.418;11.064;2023-06-24T13:19:36;26.50;90.10
14359;DHT22;7263;49.418;11.064;2023-06-24T13:22:23;26.60;89.70
14359;DHT22;7263;49.418;11.064;2023-06-24T13:24:50;26.50;90.30
14359;DHT22;7263;49.418;11.064;2023-06-24T13:27:20;26.30;90.10
14359;DHT22;7263;49.418;11.064;2023-06-24T13:29:50;26.30;90.60
14359;DHT22;7263;49.418;11.064;2023-06-24T13:32:17;26.40;90.00
14359;DHT22;7263;49.418;11.064;2023-06-24T13:37:14;26.60;91.20
14359;DHT22;7263;49.418;11.064;2023-06-24T13:39:42;26.60;90.00
14359;DHT22;7263;49.418;11.064;2023-06-24T13:42:11;26.80;90.20
14359;DHT22;7263;49.418;11.064;2023-06-24T13:44:38;26.80;90.00
14359;DHT22;7263;49.418;11.064;2023-06-24T13:47:07;26.50;88.10
14359;DHT22;7263;49.418;11.064;2023-06-24T13:49:36;26.40;89.40
14359;DHT22;7263;49.418;11.064;2023-06-24T13:52:05;26.10;89.50
14359;DHT22;7263;49.418;11.064;2023-06-24T13:54:31;26.00;90.10
14359;DHT22;7263;49.418;11.064;2023-06-24T13:57:07;25.60;89.20
14359;DHT22;7263;49.418;11.064;2023-06-24T13:59:34;25.50;89.50
14359;DHT22;7263;49.418;11.064;2023-06-24T14:02:04;25.30;89.50
14359;DHT22;7263;49.418;11.064;2023-06-24T14:04:34;25.30;90.20
14359;DHT22;7263;49.418;11.064;2023-06-24T14:07:01;25.20;90.10
14359;DHT22;7263;49.418;11.064;2023-06-24T14:09:30;25.30;90.40
14359;DHT22;7263;49.418;11.064;2023-06-24T14:11:57;25.30;90.70
14359;DHT22;7263;49.418;11.064;2023-06-24T14:14:25;25.50;90.60
14359;DHT22;7263;49.418;11.064;2023-06-24T14:16:56;25.80;90.20
14359;DHT22;7263;49.418;11.064;2023-06-24T14:19:23;25.80;90.60
14359;DHT22;7263;49.418;11.064;2023-06-24T14:21:53;26.00;90.60
14359;DHT22;7263;49.418;11.064;2023-06-24T14:24:20;26.10;90.30
14359;DHT22;7263;49.418;11.064;2023-06-24T14:26:46;26.20;90.50
14359;DHT22;7263;49.418;11.064;2023-06-24T14:29:15;26.20;90.90
14359;DHT22;7263;49.418;11.064;2023-06-24T14:31:49;26.30;91.20
14359;DHT22;7263;49.418;11.064;2023-06-24T14:34:16;26.30;87.60
14359;DHT22;7263;49.418;11.064;2023-06-24T14:39:14;26.00;87.00
14359;DHT22;7263;49.418;11.064;2023-06-24T14:41:41;26.10;88.70
14359;DHT22;7263;49.418;11.064;2023-06-24T14:46:34;26.30;88.10
14359;DHT22;7263;49.418;11.064;2023-06-24T14:49:03;26.20;86.30
14359;DHT22;7263;49.418;11.064;2023-06-24T14:53:57;26.30;88.10
14359;DHT22;7263;49.418;11.064;2023-06-24T14:56:23;26.40;87.10
14359;DHT22;7263;49.418;11.064;2023-06-24T14:58:53;26.30;87.20
14359;DHT22;7263;49.418;11.064;2023-06-24T15:01:20;26.40;86.00
14359;DHT22;7263;49.418;11.064;2023-06-24T15:03:46;26.40;84.80
14359;DHT22;7263;49.418;11.064;2023-06-24T15:06:15;26.40;84.00
14359;DHT22;7263;49.418;11.064;2023-06-24T15:18:35;27.10;84.60
14359;DHT22;7263;49.418;11.064;2023-06-24T15:23:30;27.70;81.10
14359;DHT22;7263;49.418;11.064;2023-06-24T15:25:57;27.80;83.50
14359;DHT22;7263;49.418;11.064;2023-06-24T15:28:23;28.10;82.20
14359;DHT22;7263;49.418;11.064;2023-06-24T15:30:57;28.40;82.80
14359;DHT22;7263;49.418;11.064;2023-06-24T15:33:26;28.70;83.00
14359;DHT22;7263;49.418;11.064;2023-06-24T15:35:53;28.40;81.10
14359;DHT22;7263;49.418;11.064;2023-06-24T15:38:20;28.40;81.30
14359;DHT22;7263;49.418;11.064;2023-06-24T15:40:49;27.90;81.80
14359;DHT22;7263;49.418;11.064;2023-06-24T15:43:18;27.70;82.80
14359;DHT22;7263;49.418;11.064;2023-06-24T15:45:45;27.70;83.80
14359;DHT22;7263;49.418;11.064;2023-06-24T15:48:12;27.40;83.10
14359;DHT22;7263;49.418;11.064;2023-06-24T15:50:39;26.70;82.80
14359;DHT22;7263;49.418;11.064;2023-06-24T15:53:06;26.50;83.00
14359;DHT22;7263;49.418;11.064;2023-06-24T15:55:35;26.40;83.20
14359;DHT22;7263;49.418;11.064;2023-06-24T15:58:18;26.30;82.90
14359;DHT22;7263;49.418;11.064;2023-06-24T16:00:49;26.10;83.50
14359;DHT22;7263;49.418;11.064;2023-06-24T16:03:16;26.00;83.00
14359;DHT22;7263;49.418;11.064;2023-06-24T16:05:43;25.90;81.80
14359;DHT22;7263;49.418;11.064;2023-06-24T16:08:10;25.80;82.80
14359;DHT22;7263;49.418;11.064;2023-06-24T16:10:37;25.80;83.40
14359;DHT22;7263;49.418;11.064;2023-06-24T16:13:03;25.90;84.40
14359;DHT22;7263;49.418;11.064;2023-06-24T16:15:34;25.80;85.20
14359;DHT22;7263;49.418;11.064;2023-06-24T16:20:30;25.90;85.00
14359;DHT22;7263;49.418;11.064;2023-06-24T16:22:57;25.90;86.00
14359;DHT22;7263;49.418;11.064;2023-06-24T16:27:56;25.70;84.30
14359;DHT22;7263;49.418;11.064;2023-06-24T16:32:52;25.70;84.70
14359;DHT22;7263;49.418;11.064;2023-06-24T16:35:18;25.60;84.40
14359;DHT22;7263;49.418;11.064;2023-06-24T16:37:48;25.40;84.70
14359;DHT22;7263;49.418;11.064;2023-06-24T16:40:15;25.30;84.90
14359;DHT22;7263;49.418;11.064;2023-06-24T16:42:44;25.30;85.20
14359;DHT22;7263;49.418;11.064;2023-06-24T16:45:11;25.30;85.70
14359;DHT22;7263;49.418;11.064;2023-06-24T16:47:38;25.30;85.50
14359;DHT22;7263;49.418;11.064;2023-06-24T16:50:09;25.30;85.10
14359;DHT22;7263;49.418;11.064;2023-06-24T16:52:38;25.30;85.30
14359;DHT22;7263;49.418;11.064;2023-06-24T16:55:05;25.30;85.10
14359;DHT22;7263;49.418;11.064;2023-06-24T16:57:35;25.40;84.80
14359;DHT22;7263;49.418;11.064;2023-06-24T17:00:02;25.30;85.20
14359;DHT22;7263;49.418;11.064;2023-06-24T17:02:32;25.30;86.10
14359;DHT22;7263;49.418;11.064;2023-06-24T17:04:59;25.30;85.60
14359;DHT22;7263;49.418;11.064;2023-06-24T17:07:27;25.30;86.30
14359;DHT22;7263;49.418;11.064;2023-06-24T17:09:57;25.30;86.10
14359;DHT22;7263;49.418;11.064;2023-06-24T17:12:24;25.30;86.60